createdAt,value
2023-04-30T00:00:24.458Z,23.13
2023-04-30T00:01:24.458Z,23.16
2023-04-30T00:02:24.544Z,23.18
2023-04-30T00:03:24.606Z,23.18
2023-04-30T00:04:24.557Z,23.19
2023-04-30T00:05:24.527Z,23.21
2023-04-30T00:06:26.150Z,23.21
2023-04-30T00:07:24.539Z,23.21
2023-04-30T00:08:24.521Z,23.21
2023-04-30T00:09:24.520Z,23.22
2023-04-30T00:10:24.505Z,23.21
2023-04-30T00:11:24.501Z,23.21
2023-04-30T00:12:24.495Z,23.21
2023-04-30T00:13:24.530Z,23.21
2023-04-30T00:14:24.480Z,23.21
2023-04-30T00:15:24.469Z,23.21
2023-04-30T00:16:24.508Z,23.21
2023-04-30T00:17:24.530Z,23.22
2023-04-30T00:18:24.447Z,23.20
2023-04-30T00:19:24.468Z,23.20
2023-04-30T00:20:24.440Z,23.20
2023-04-30T00:21:24.429Z,23.21
2023-04-30T00:22:24.426Z,23.21
2023-04-30T00:23:24.417Z,23.20
2023-04-30T00:24:24.434Z,23.20
2023-04-30T00:25:24.399Z,23.20
2023-04-30T00:26:24.401Z,23.20
2023-04-30T00:27:24.391Z,23.20
2023-04-30T00:28:24.384Z,23.20
2023-04-30T00:29:24.411Z,23.20
2023-04-30T00:30:24.364Z,23.20
2023-04-30T00:31:24.505Z,23.19
2023-04-30T00:32:24.430Z,23.19
2023-04-30T00:33:24.343Z,23.19
2023-04-30T00:34:24.347Z,23.19
2023-04-30T00:35:24.329Z,23.19
2023-04-30T00:36:24.324Z,23.19
2023-04-30T00:37:24.320Z,23.19
2023-04-30T00:38:24.304Z,23.19
2023-04-30T00:39:24.315Z,23.18
2023-04-30T00:40:24.297Z,23.19
2023-04-30T00:41:24.307Z,23.18
2023-04-30T00:42:24.295Z,23.18
2023-04-30T00:43:24.306Z,23.19
2023-04-30T00:44:24.304Z,23.18
2023-04-30T00:45:24.327Z,23.18
2023-04-30T00:46:24.450Z,23.18
2023-04-30T00:47:24.362Z,23.18
2023-04-30T00:48:24.296Z,23.18
2023-04-30T00:49:24.316Z,23.18
2023-04-30T00:50:24.304Z,23.18
2023-04-30T00:51:24.303Z,23.18
2023-04-30T00:52:24.301Z,23.17
2023-04-30T00:53:24.314Z,23.17
2023-04-30T00:54:24.316Z,23.17
2023-04-30T00:55:24.337Z,23.17
2023-04-30T00:56:24.367Z,23.18
2023-04-30T00:57:24.395Z,23.17
2023-04-30T00:58:24.425Z,23.17
2023-04-30T00:59:24.435Z,23.17
2023-04-30T01:00:24.465Z,23.16
2023-04-30T01:01:24.541Z,23.17
2023-04-30T01:02:24.635Z,23.17
2023-04-30T01:03:24.708Z,23.17
2023-04-30T01:04:24.571Z,23.16
2023-04-30T01:05:24.609Z,23.16
2023-04-30T01:06:24.655Z,23.16
2023-04-30T01:07:24.672Z,23.16
2023-04-30T01:08:24.699Z,23.15
2023-04-30T01:09:24.741Z,23.15
2023-04-30T01:10:24.764Z,23.16
2023-04-30T01:11:24.789Z,23.16
2023-04-30T01:12:24.836Z,23.15
2023-04-30T01:13:24.844Z,23.15
2023-04-30T01:14:24.883Z,23.16
2023-04-30T01:15:25.267Z,23.14
2023-04-30T01:16:25.327Z,23.15
2023-04-30T01:17:25.343Z,23.15
2023-04-30T01:18:25.359Z,23.14
2023-04-30T01:19:25.316Z,23.14
2023-04-30T01:20:25.318Z,23.14
2023-04-30T01:21:25.327Z,23.14
2023-04-30T01:22:25.326Z,23.15
2023-04-30T01:23:25.339Z,23.13
2023-04-30T01:24:25.324Z,23.13
2023-04-30T01:25:25.318Z,23.14
2023-04-30T01:26:25.314Z,23.14
2023-04-30T01:27:25.331Z,23.13
2023-04-30T01:28:25.363Z,23.13
2023-04-30T01:29:25.396Z,23.13
2023-04-30T01:30:25.423Z,23.13
2023-04-30T01:31:25.508Z,23.13
2023-04-30T01:32:25.543Z,23.13
2023-04-30T01:33:25.577Z,23.13
2023-04-30T01:34:25.580Z,23.12
2023-04-30T01:35:25.613Z,23.12
2023-04-30T01:36:25.645Z,23.13
2023-04-30T01:37:25.679Z,23.12
2023-04-30T01:38:25.725Z,23.12
2023-04-30T01:39:25.760Z,23.12
2023-04-30T01:40:25.793Z,23.12
2023-04-30T01:41:25.834Z,23.12
2023-04-30T01:42:25.881Z,23.12
2023-04-30T01:43:25.917Z,23.12
2023-04-30T01:44:25.952Z,23.12
2023-04-30T01:45:25.995Z,23.12
2023-04-30T01:46:26.072Z,23.11
2023-04-30T01:47:26.093Z,23.11
2023-04-30T01:48:26.102Z,23.12
2023-04-30T01:49:26.162Z,23.11
2023-04-30T01:50:26.183Z,23.11
2023-04-30T01:51:26.209Z,23.11
2023-04-30T01:52:26.235Z,23.12
2023-04-30T01:53:26.267Z,23.11
2023-04-30T01:54:26.301Z,23.11
2023-04-30T01:55:26.335Z,23.11
2023-04-30T01:56:26.370Z,23.11
2023-04-30T01:57:26.415Z,23.10
2023-04-30T01:58:26.444Z,23.10
2023-04-30T01:59:26.479Z,23.10
2023-04-30T02:00:26.520Z,23.10
2023-04-30T02:01:26.625Z,23.10
2023-04-30T02:02:26.650Z,23.09
2023-04-30T02:03:26.759Z,23.09
2023-04-30T02:04:26.661Z,23.10
2023-04-30T02:05:26.728Z,23.09
2023-04-30T02:06:26.794Z,23.09
2023-04-30T02:07:26.770Z,23.09
2023-04-30T02:08:26.811Z,23.09
2023-04-30T02:09:26.850Z,23.09
2023-04-30T02:10:26.895Z,23.09
2023-04-30T02:11:26.927Z,23.09
2023-04-30T02:12:26.972Z,23.09
2023-04-30T02:13:26.988Z,23.09
2023-04-30T02:14:27.034Z,23.09
2023-04-30T02:15:27.071Z,23.09
2023-04-30T02:16:27.166Z,23.09
2023-04-30T02:17:27.143Z,23.09
2023-04-30T02:18:27.180Z,23.08
2023-04-30T02:19:27.230Z,23.08
2023-04-30T02:20:27.262Z,23.09
2023-04-30T02:21:27.314Z,23.08
2023-04-30T02:22:27.340Z,23.08
2023-04-30T02:23:27.375Z,23.07
2023-04-30T02:24:27.410Z,23.07
2023-04-30T02:25:27.456Z,23.07
2023-04-30T02:26:27.496Z,23.07
2023-04-30T02:27:27.542Z,23.07
2023-04-30T02:28:27.568Z,23.08
2023-04-30T02:29:27.606Z,23.08
2023-04-30T02:30:27.643Z,23.06
2023-04-30T02:31:27.733Z,23.07
2023-04-30T02:32:27.818Z,23.07
2023-04-30T02:33:27.777Z,23.07
2023-04-30T02:34:27.821Z,23.07
2023-04-30T02:35:27.853Z,23.07
2023-04-30T02:36:27.904Z,23.06
2023-04-30T02:37:27.964Z,23.07
2023-04-30T02:38:27.987Z,23.06
2023-04-30T02:39:28.030Z,23.06
2023-04-30T02:40:28.083Z,23.06
2023-04-30T02:41:28.123Z,23.06
2023-04-30T02:42:28.150Z,23.06
2023-04-30T02:43:28.202Z,23.06
2023-04-30T02:44:28.239Z,23.05
2023-04-30T02:45:28.323Z,23.06
2023-04-30T02:46:28.331Z,23.05
2023-04-30T02:47:28.384Z,23.06
2023-04-30T02:48:28.420Z,23.05
2023-04-30T02:49:28.456Z,23.05
2023-04-30T02:50:28.493Z,23.05
2023-04-30T02:51:28.546Z,23.05
2023-04-30T02:52:28.600Z,23.04
2023-04-30T02:53:28.672Z,23.05
2023-04-30T02:54:28.696Z,23.05
2023-04-30T02:55:28.803Z,23.05
2023-04-30T02:56:28.779Z,23.05
2023-04-30T02:57:28.816Z,23.04
2023-04-30T02:58:28.861Z,23.04
2023-04-30T02:59:28.914Z,23.04
2023-04-30T03:00:28.955Z,23.04
2023-04-30T03:01:29.050Z,23.04
2023-04-30T03:02:29.074Z,23.04
2023-04-30T03:03:29.128Z,23.04
2023-04-30T03:04:29.142Z,23.04
2023-04-30T03:05:29.184Z,23.03
2023-04-30T03:06:29.293Z,23.04
2023-04-30T03:07:29.276Z,23.04
2023-04-30T03:08:29.320Z,23.03
2023-04-30T03:09:29.394Z,23.03
2023-04-30T03:10:29.414Z,23.03
2023-04-30T03:11:29.467Z,23.03
2023-04-30T03:12:29.501Z,23.03
2023-04-30T03:13:29.538Z,23.03
2023-04-30T03:14:29.579Z,23.04
2023-04-30T03:15:29.620Z,23.04
2023-04-30T03:16:29.682Z,23.03
2023-04-30T03:17:29.754Z,23.03
2023-04-30T03:18:29.749Z,23.03
2023-04-30T03:19:29.805Z,23.02
2023-04-30T03:20:29.831Z,23.03
2023-04-30T03:21:29.879Z,23.03
2023-04-30T03:22:29.961Z,23.03
2023-04-30T03:23:29.974Z,23.03
2023-04-30T03:24:30.404Z,23.03
2023-04-30T03:25:30.428Z,23.02
2023-04-30T03:26:30.392Z,23.03
2023-04-30T03:27:30.402Z,23.02
2023-04-30T03:28:30.402Z,23.02
2023-04-30T03:29:30.385Z,23.02
2023-04-30T03:30:30.401Z,23.01
2023-04-30T03:31:30.406Z,23.01
2023-04-30T03:32:30.455Z,23.01
2023-04-30T03:33:30.467Z,23.02
2023-04-30T03:34:30.456Z,23.01
2023-04-30T03:35:30.509Z,23.01
2023-04-30T03:36:30.558Z,23.01
2023-04-30T03:37:30.605Z,23.01
2023-04-30T03:38:30.657Z,23.01
2023-04-30T03:39:30.703Z,23.01
2023-04-30T03:40:30.741Z,23.01
2023-04-30T03:41:30.809Z,23.01
2023-04-30T03:42:30.827Z,23.01
2023-04-30T03:43:30.876Z,23.01
2023-04-30T03:44:30.935Z,23.01
2023-04-30T03:45:30.969Z,23.01
2023-04-30T03:46:31.483Z,23.01
2023-04-30T03:47:32.044Z,23.00
2023-04-30T03:48:31.404Z,23.00
2023-04-30T03:49:31.405Z,23.00
2023-04-30T03:50:31.432Z,23.00
2023-04-30T03:51:31.431Z,23.00
2023-04-30T03:52:31.424Z,23.00
2023-04-30T03:53:31.428Z,23.00
2023-04-30T03:54:31.421Z,23.00
2023-04-30T03:55:31.444Z,23.00
2023-04-30T03:56:31.492Z,22.99
2023-04-30T03:57:31.565Z,23.00
2023-04-30T03:58:31.580Z,22.99
2023-04-30T03:59:31.625Z,22.99
2023-04-30T04:00:31.685Z,22.99
2023-04-30T04:01:31.754Z,22.99
2023-04-30T04:02:31.862Z,22.99
2023-04-30T04:03:31.807Z,22.99
2023-04-30T04:04:31.871Z,22.99
2023-04-30T04:05:31.897Z,22.99
2023-04-30T04:06:32.180Z,22.98
2023-04-30T04:07:31.995Z,22.98
2023-04-30T04:08:32.042Z,22.98
2023-04-30T04:09:32.111Z,22.98
2023-04-30T04:10:32.136Z,22.98
2023-04-30T04:11:32.186Z,22.98
2023-04-30T04:12:32.236Z,22.98
2023-04-30T04:13:32.329Z,22.98
2023-04-30T04:14:32.341Z,22.98
2023-04-30T04:15:32.389Z,22.98
2023-04-30T04:16:32.589Z,22.98
2023-04-30T04:17:32.564Z,22.98
2023-04-30T04:18:32.525Z,22.97
2023-04-30T04:19:32.578Z,22.97
2023-04-30T04:20:32.617Z,22.98
2023-04-30T04:21:32.676Z,22.97
2023-04-30T04:22:32.726Z,22.97
2023-04-30T04:23:32.768Z,22.98
2023-04-30T04:24:32.828Z,22.97
2023-04-30T04:25:32.866Z,22.97
2023-04-30T04:26:32.926Z,22.96
2023-04-30T04:27:32.972Z,22.97
2023-04-30T04:28:33.044Z,22.97
2023-04-30T04:29:33.093Z,22.97
2023-04-30T04:30:33.115Z,22.97
2023-04-30T04:31:33.208Z,22.97
2023-04-30T04:32:33.273Z,22.97
2023-04-30T04:33:33.262Z,22.97
2023-04-30T04:34:33.315Z,22.97
2023-04-30T04:35:33.366Z,22.97
2023-04-30T04:36:33.431Z,22.97
2023-04-30T04:37:33.462Z,22.97
2023-04-30T04:38:34.042Z,22.97
2023-04-30T04:39:33.576Z,22.97
2023-04-30T04:40:33.599Z,22.97
2023-04-30T04:41:33.662Z,22.97
2023-04-30T04:42:33.701Z,22.97
2023-04-30T04:43:33.753Z,22.96
2023-04-30T04:44:33.798Z,22.97
2023-04-30T04:45:33.956Z,22.96
2023-04-30T04:46:33.921Z,22.97
2023-04-30T04:47:34.044Z,22.97
2023-04-30T04:48:34.015Z,22.97
2023-04-30T04:49:34.051Z,22.96
2023-04-30T04:50:34.097Z,22.96
2023-04-30T04:51:34.149Z,22.97
2023-04-30T04:52:34.196Z,22.96
2023-04-30T04:53:34.959Z,22.96
2023-04-30T04:54:34.301Z,22.97
2023-04-30T04:55:34.337Z,22.96
2023-04-30T04:56:34.399Z,22.97
2023-04-30T04:57:34.445Z,22.96
2023-04-30T04:58:34.509Z,22.96
2023-04-30T04:59:34.549Z,22.97
2023-04-30T05:00:34.610Z,22.96
2023-04-30T05:01:34.808Z,22.97
2023-04-30T05:02:34.747Z,22.96
2023-04-30T05:03:34.819Z,22.97
2023-04-30T05:04:34.785Z,22.97
2023-04-30T05:05:34.836Z,22.97
2023-04-30T05:06:35.009Z,22.97
2023-04-30T05:07:34.930Z,22.96
2023-04-30T05:08:35.002Z,22.96
2023-04-30T05:09:35.025Z,22.96
2023-04-30T05:10:35.072Z,22.96
2023-04-30T05:11:35.123Z,22.96
2023-04-30T05:12:35.170Z,22.97
2023-04-30T05:13:35.224Z,22.96
2023-04-30T05:14:35.277Z,22.96
2023-04-30T05:15:35.329Z,22.96
2023-04-30T05:16:35.459Z,22.97
2023-04-30T05:17:35.500Z,22.97
2023-04-30T05:18:35.515Z,22.97
2023-04-30T05:19:35.550Z,22.97
2023-04-30T05:20:35.597Z,22.97
2023-04-30T05:21:35.667Z,22.97
2023-04-30T05:22:35.700Z,22.97
2023-04-30T05:23:35.745Z,22.97
2023-04-30T05:24:35.804Z,22.97
2023-04-30T05:25:35.858Z,22.97
2023-04-30T05:26:35.911Z,22.97
2023-04-30T05:27:35.944Z,22.97
2023-04-30T05:28:36.004Z,22.96
2023-04-30T05:29:36.049Z,22.96
2023-04-30T05:30:36.453Z,22.97
2023-04-30T05:31:36.498Z,22.97
2023-04-30T05:32:36.523Z,22.97
2023-04-30T05:33:36.488Z,22.97
2023-04-30T05:34:36.464Z,22.97
2023-04-30T05:35:36.463Z,22.97
2023-04-30T05:36:36.463Z,22.97
2023-04-30T05:37:36.465Z,22.98
2023-04-30T05:38:36.482Z,22.98
2023-04-30T05:39:36.532Z,22.98
2023-04-30T05:40:36.588Z,22.98
2023-04-30T05:41:36.641Z,22.98
2023-04-30T05:42:36.680Z,22.98
2023-04-30T05:43:36.732Z,22.98
2023-04-30T05:44:36.787Z,22.99
2023-04-30T05:45:36.865Z,22.99
2023-04-30T05:46:36.892Z,23.00
2023-04-30T05:47:36.963Z,23.00
2023-04-30T05:48:36.980Z,23.00
2023-04-30T05:49:37.054Z,23.00
2023-04-30T05:50:37.474Z,23.00
2023-04-30T05:51:37.473Z,23.01
2023-04-30T05:52:37.472Z,23.01
2023-04-30T05:53:37.492Z,23.00
2023-04-30T05:54:37.474Z,23.00
2023-04-30T05:55:37.479Z,23.01
2023-04-30T05:56:37.477Z,23.01
2023-04-30T05:57:37.475Z,23.00
2023-04-30T05:58:37.484Z,23.02
2023-04-30T05:59:37.512Z,23.01
2023-04-30T06:00:37.565Z,23.01
2023-04-30T06:01:37.644Z,23.01
2023-04-30T06:02:37.778Z,23.01
2023-04-30T06:03:37.713Z,23.02
2023-04-30T06:04:37.768Z,23.01
2023-04-30T06:05:37.895Z,23.01
2023-04-30T06:06:37.893Z,23.01
2023-04-30T06:07:37.906Z,23.02
2023-04-30T06:08:37.955Z,23.02
2023-04-30T06:09:38.018Z,23.03
2023-04-30T06:10:38.055Z,23.03
2023-04-30T06:11:38.145Z,23.03
2023-04-30T06:12:38.153Z,23.03
2023-04-30T06:13:38.186Z,23.03
2023-04-30T06:14:38.233Z,23.03
2023-04-30T06:15:38.286Z,23.03
2023-04-30T06:16:38.414Z,23.04
2023-04-30T06:17:38.388Z,23.04
2023-04-30T06:18:38.418Z,23.04
2023-04-30T06:19:39.103Z,23.04
2023-04-30T06:20:38.521Z,23.04
2023-04-30T06:21:38.620Z,23.05
2023-04-30T06:22:38.595Z,23.05
2023-04-30T06:23:38.641Z,23.06
2023-04-30T06:24:38.688Z,23.06
2023-04-30T06:25:38.750Z,23.06
2023-04-30T06:26:39.020Z,23.07
2023-04-30T06:27:38.911Z,23.07
2023-04-30T06:28:38.858Z,23.07
2023-04-30T06:29:38.922Z,23.07
2023-04-30T06:30:38.946Z,23.07
2023-04-30T06:31:39.052Z,23.07
2023-04-30T06:32:39.149Z,23.07
2023-04-30T06:33:39.085Z,23.07
2023-04-30T06:34:39.121Z,23.07
2023-04-30T06:35:39.174Z,23.07
2023-04-30T06:36:39.198Z,23.07
2023-04-30T06:37:39.265Z,23.07
2023-04-30T06:38:39.286Z,23.08
2023-04-30T06:39:39.350Z,23.08
2023-04-30T06:40:39.432Z,23.08
2023-04-30T06:41:39.427Z,23.08
2023-04-30T06:42:39.442Z,23.08
2023-04-30T06:43:39.473Z,23.08
2023-04-30T06:44:39.514Z,23.08
2023-04-30T06:45:39.562Z,23.08
2023-04-30T06:46:39.634Z,23.09
2023-04-30T06:47:39.780Z,23.09
2023-04-30T06:48:39.697Z,23.10
2023-04-30T06:49:39.737Z,23.09
2023-04-30T06:50:39.777Z,23.10
2023-04-30T06:51:39.808Z,23.11
2023-04-30T06:52:39.851Z,23.11
2023-04-30T06:53:39.922Z,23.11
2023-04-30T06:54:39.942Z,23.12
2023-04-30T06:55:39.978Z,23.13
2023-04-30T06:56:40.017Z,23.13
2023-04-30T06:57:40.073Z,23.13
2023-04-30T06:58:40.087Z,23.14
2023-04-30T06:59:40.132Z,23.16
2023-04-30T07:00:40.166Z,23.16
2023-04-30T07:01:40.256Z,23.15
2023-04-30T07:02:40.279Z,23.16
2023-04-30T07:03:40.439Z,23.16
2023-04-30T07:04:40.305Z,23.16
2023-04-30T07:05:40.331Z,23.17
2023-04-30T07:06:40.402Z,23.17
2023-04-30T07:07:40.401Z,23.17
2023-04-30T07:08:40.433Z,23.18
2023-04-30T07:09:40.494Z,23.18
2023-04-30T07:10:40.592Z,23.18
2023-04-30T07:11:40.540Z,23.18
2023-04-30T07:12:40.582Z,23.18
2023-04-30T07:13:40.611Z,23.18
2023-04-30T07:14:40.649Z,23.18
2023-04-30T07:15:40.700Z,23.18
2023-04-30T07:16:40.704Z,23.18
2023-04-30T07:17:40.784Z,23.18
2023-04-30T07:18:40.786Z,23.18
2023-04-30T07:19:40.822Z,23.19
2023-04-30T07:20:40.859Z,23.19
2023-04-30T07:21:40.900Z,23.19
2023-04-30T07:22:40.922Z,23.19
2023-04-30T07:23:40.956Z,23.20
2023-04-30T07:24:40.996Z,23.20
2023-04-30T07:25:41.046Z,23.19
2023-04-30T07:26:41.048Z,23.20
2023-04-30T07:27:41.136Z,23.20
2023-04-30T07:28:41.101Z,23.21
2023-04-30T07:29:41.123Z,23.20
2023-04-30T07:30:41.153Z,23.21
2023-04-30T07:31:41.214Z,23.21
2023-04-30T07:32:41.325Z,23.22
2023-04-30T07:33:41.243Z,23.22
2023-04-30T07:34:41.254Z,23.22
2023-04-30T07:35:41.286Z,23.22
2023-04-30T07:36:41.300Z,23.22
2023-04-30T07:37:41.617Z,23.22
2023-04-30T07:38:41.362Z,23.22
2023-04-30T07:39:41.375Z,23.22
2023-04-30T07:40:41.398Z,23.22
2023-04-30T07:41:41.453Z,23.23
2023-04-30T07:42:41.450Z,23.23
2023-04-30T07:43:41.476Z,23.23
2023-04-30T07:44:41.499Z,23.24
2023-04-30T07:45:41.608Z,23.24
2023-04-30T07:46:41.611Z,23.24
2023-04-30T07:47:41.600Z,23.24
2023-04-30T07:48:41.599Z,23.25
2023-04-30T07:49:41.634Z,23.25
2023-04-30T07:50:41.650Z,23.26
2023-04-30T07:51:41.686Z,23.27
2023-04-30T07:52:41.708Z,23.26
2023-04-30T07:53:41.733Z,23.27
2023-04-30T07:54:41.758Z,23.27
2023-04-30T07:55:41.786Z,23.27
2023-04-30T07:56:41.798Z,23.28
2023-04-30T07:57:41.826Z,23.27
2023-04-30T07:58:41.824Z,23.28
2023-04-30T07:59:41.854Z,23.28
2023-04-30T08:00:41.879Z,23.28
2023-04-30T08:01:41.934Z,23.28
2023-04-30T08:02:41.932Z,23.28
2023-04-30T08:03:42.061Z,23.28
2023-04-30T08:04:41.964Z,23.28
2023-04-30T08:05:41.975Z,23.28
2023-04-30T08:06:42.728Z,23.29
2023-04-30T08:07:42.017Z,23.28
2023-04-30T08:08:42.052Z,23.29
2023-04-30T08:09:42.072Z,23.30
2023-04-30T08:10:42.113Z,23.30
2023-04-30T08:11:42.100Z,23.30
2023-04-30T08:12:42.112Z,23.30
2023-04-30T08:13:42.154Z,23.30
2023-04-30T08:14:42.142Z,23.30
2023-04-30T08:15:42.616Z,23.29
2023-04-30T08:16:42.574Z,23.29
2023-04-30T08:17:42.636Z,23.29
2023-04-30T08:18:42.556Z,23.30
2023-04-30T08:19:42.570Z,23.31
2023-04-30T08:20:42.558Z,23.30
2023-04-30T08:21:42.570Z,23.32
2023-04-30T08:22:42.562Z,23.31
2023-04-30T08:23:42.559Z,23.32
2023-04-30T08:24:42.571Z,23.32
2023-04-30T08:25:42.558Z,23.34
2023-04-30T08:26:42.571Z,23.33
2023-04-30T08:27:42.569Z,23.34
2023-04-30T08:28:42.573Z,23.35
2023-04-30T08:29:42.691Z,23.35
2023-04-30T08:30:42.565Z,23.35
2023-04-30T08:31:42.643Z,23.36
2023-04-30T08:32:42.589Z,23.36
2023-04-30T08:33:42.573Z,23.36
2023-04-30T08:34:42.567Z,23.37
2023-04-30T08:35:42.572Z,23.37
2023-04-30T08:36:42.566Z,23.38
2023-04-30T08:37:42.574Z,23.38
2023-04-30T08:38:42.567Z,23.38
2023-04-30T08:39:43.134Z,23.39
2023-04-30T08:41:41.484Z,23.39
2023-04-30T08:42:42.576Z,23.40
2023-04-30T08:43:42.574Z,23.40
2023-04-30T08:44:42.581Z,23.40
2023-04-30T08:45:42.717Z,23.41
2023-04-30T08:46:42.626Z,23.41
2023-04-30T08:47:42.614Z,23.41
2023-04-30T08:48:42.588Z,23.41
2023-04-30T08:49:42.579Z,23.42
2023-04-30T08:50:42.591Z,23.41
2023-04-30T08:51:42.575Z,23.41
2023-04-30T08:52:42.644Z,23.41
2023-04-30T08:53:42.583Z,23.41
2023-04-30T08:54:42.576Z,23.42
2023-04-30T08:55:42.583Z,23.42
2023-04-30T08:56:42.604Z,23.43
2023-04-30T08:57:42.592Z,23.43
2023-04-30T08:58:42.581Z,23.42
2023-04-30T08:59:42.588Z,23.44
2023-04-30T09:00:42.598Z,23.44
2023-04-30T09:01:42.715Z,23.44
2023-04-30T09:02:42.783Z,23.44
2023-04-30T09:03:42.653Z,23.44
2023-04-30T09:04:42.578Z,23.45
2023-04-30T09:05:42.590Z,23.45
2023-04-30T09:06:42.750Z,23.45
2023-04-30T09:08:41.276Z,23.45
2023-04-30T09:09:42.604Z,23.45
2023-04-30T09:10:42.589Z,23.45
2023-04-30T09:11:42.602Z,23.45
2023-04-30T09:12:42.583Z,23.45
2023-04-30T09:13:42.596Z,23.45
2023-04-30T09:14:42.590Z,23.45
2023-04-30T09:15:42.631Z,23.45
2023-04-30T09:16:42.594Z,23.45
2023-04-30T09:17:42.669Z,23.45
2023-04-30T09:18:42.591Z,23.46
2023-04-30T09:19:42.595Z,23.46
2023-04-30T09:20:42.549Z,23.46
2023-04-30T09:21:42.591Z,23.46
2023-04-30T09:22:42.647Z,23.46
2023-04-30T09:23:42.591Z,23.47
2023-04-30T09:24:42.591Z,23.46
2023-04-30T09:25:42.609Z,23.46
2023-04-30T09:26:42.592Z,23.46
2023-04-30T09:27:42.596Z,23.46
2023-04-30T09:28:42.599Z,23.46
2023-04-30T09:29:42.653Z,23.46
2023-04-30T09:30:42.654Z,23.46
2023-04-30T09:31:42.668Z,23.46
2023-04-30T09:32:42.642Z,23.48
2023-04-30T09:33:42.625Z,23.48
2023-04-30T09:34:42.598Z,23.48
2023-04-30T09:35:42.622Z,23.48
2023-04-30T09:36:42.603Z,23.48
2023-04-30T09:37:42.604Z,23.48
2023-04-30T09:38:42.603Z,23.49
2023-04-30T09:39:42.618Z,23.48
2023-04-30T09:40:42.635Z,23.49
2023-04-30T09:41:42.602Z,23.50
2023-04-30T09:42:42.607Z,23.49
2023-04-30T09:43:42.604Z,23.50
2023-04-30T09:44:42.612Z,23.50
2023-04-30T09:45:42.634Z,23.51
2023-04-30T09:46:42.633Z,23.51
2023-04-30T09:47:42.644Z,23.52
2023-04-30T09:48:42.610Z,23.52
2023-04-30T09:49:42.632Z,23.52
2023-04-30T09:50:43.418Z,23.52
2023-04-30T09:51:42.644Z,23.53
2023-04-30T09:52:42.647Z,23.53
2023-04-30T09:53:42.664Z,23.52
2023-04-30T09:54:42.669Z,23.53
2023-04-30T09:55:42.689Z,23.54
2023-04-30T09:56:42.699Z,23.54
2023-04-30T09:57:42.711Z,23.53
2023-04-30T09:58:42.731Z,23.53
2023-04-30T09:59:42.737Z,23.54
2023-04-30T10:00:42.830Z,23.54
2023-04-30T10:01:42.759Z,23.54
2023-04-30T10:02:42.815Z,23.54
2023-04-30T10:03:42.832Z,23.54
2023-04-30T10:04:42.790Z,23.54
2023-04-30T10:05:42.831Z,23.54
2023-04-30T10:06:42.870Z,23.54
2023-04-30T10:07:42.811Z,23.55
2023-04-30T10:08:42.824Z,23.54
2023-04-30T10:09:42.829Z,23.54
2023-04-30T10:10:42.859Z,23.55
2023-04-30T10:11:42.857Z,23.56
2023-04-30T10:12:42.862Z,23.55
2023-04-30T10:13:42.909Z,23.56
2023-04-30T10:14:42.870Z,23.57
2023-04-30T10:15:42.887Z,23.57
2023-04-30T10:16:42.940Z,23.57
2023-04-30T10:17:42.919Z,23.58
2023-04-30T10:18:42.891Z,23.58
2023-04-30T10:19:42.901Z,23.58
2023-04-30T10:20:42.908Z,23.59
2023-04-30T10:21:42.933Z,23.59
2023-04-30T10:22:42.920Z,23.60
2023-04-30T10:23:42.927Z,23.60
2023-04-30T10:24:42.928Z,23.60
2023-04-30T10:25:42.937Z,23.60
2023-04-30T10:26:42.939Z,23.60
2023-04-30T10:27:42.950Z,23.60
2023-04-30T10:28:42.952Z,23.60
2023-04-30T10:29:42.981Z,23.60
2023-04-30T10:30:42.967Z,23.61
2023-04-30T10:31:43.012Z,23.60
2023-04-30T10:32:43.078Z,23.61
2023-04-30T10:33:42.974Z,23.61
2023-04-30T10:34:42.985Z,23.62
2023-04-30T10:35:42.999Z,23.62
2023-04-30T10:36:43.004Z,23.62
2023-04-30T10:37:43.025Z,23.62
2023-04-30T10:38:42.999Z,23.63
2023-04-30T10:39:43.000Z,23.63
2023-04-30T10:40:42.998Z,23.63
2023-04-30T10:41:43.004Z,23.63
2023-04-30T10:42:43.009Z,23.63
2023-04-30T10:43:43.012Z,23.64
2023-04-30T10:44:43.019Z,23.64
2023-04-30T10:45:43.051Z,23.64
2023-04-30T10:46:43.081Z,23.64
2023-04-30T10:47:43.062Z,23.64
2023-04-30T10:48:43.052Z,23.64
2023-04-30T10:49:43.055Z,23.64
2023-04-30T10:50:45.135Z,23.64
2023-04-30T10:51:43.045Z,23.65
2023-04-30T10:52:43.042Z,23.65
2023-04-30T10:53:43.252Z,23.66
2023-04-30T10:54:43.026Z,23.66
2023-04-30T10:55:43.017Z,23.66
2023-04-30T10:56:43.011Z,23.67
2023-04-30T10:57:43.005Z,23.68
2023-04-30T10:58:42.999Z,23.68
2023-04-30T10:59:42.995Z,23.69
2023-04-30T11:00:43.790Z,23.68
2023-04-30T11:01:42.999Z,23.69
2023-04-30T11:02:43.001Z,23.70
2023-04-30T11:03:42.971Z,23.71
2023-04-30T11:04:42.950Z,23.71
2023-04-30T11:05:42.945Z,23.70
2023-04-30T11:06:44.928Z,23.70
2023-04-30T11:07:42.935Z,23.70
2023-04-30T11:08:42.928Z,23.71
2023-04-30T11:09:42.946Z,23.71
2023-04-30T11:10:42.908Z,23.71
2023-04-30T11:11:42.898Z,23.71
2023-04-30T11:12:42.889Z,23.71
2023-04-30T11:13:42.912Z,23.71
2023-04-30T11:14:42.884Z,23.72
2023-04-30T11:15:43.226Z,23.72
2023-04-30T11:16:42.897Z,23.73
2023-04-30T11:17:42.930Z,23.73
2023-04-30T11:18:42.855Z,23.73
2023-04-30T11:19:42.848Z,23.74
2023-04-30T11:20:42.843Z,23.74
2023-04-30T11:21:42.830Z,23.74
2023-04-30T11:22:42.822Z,23.74
2023-04-30T11:23:42.818Z,23.74
2023-04-30T11:24:42.810Z,23.75
2023-04-30T11:25:42.826Z,23.76
2023-04-30T11:26:42.794Z,23.76
2023-04-30T11:27:42.781Z,23.77
2023-04-30T11:28:42.781Z,23.77
2023-04-30T11:29:42.769Z,23.77
2023-04-30T11:30:42.767Z,23.78
2023-04-30T11:31:42.764Z,23.78
2023-04-30T11:32:42.757Z,23.79
2023-04-30T11:33:42.741Z,23.78
2023-04-30T11:34:42.736Z,23.79
2023-04-30T11:35:42.728Z,23.79
2023-04-30T11:36:43.652Z,23.79
2023-04-30T11:37:42.717Z,23.78
2023-04-30T11:38:42.712Z,23.78
2023-04-30T11:39:42.709Z,23.77
2023-04-30T11:40:42.686Z,23.78
2023-04-30T11:41:42.704Z,23.78
2023-04-30T11:42:44.991Z,23.78
2023-04-30T11:43:42.683Z,23.78
2023-04-30T11:44:42.676Z,23.78
2023-04-30T11:45:42.687Z,23.79
2023-04-30T11:46:42.742Z,23.78
2023-04-30T11:47:42.709Z,23.79
2023-04-30T11:48:42.684Z,23.79
2023-04-30T11:49:42.683Z,23.79
2023-04-30T11:50:42.693Z,23.79
2023-04-30T11:51:42.684Z,23.79
2023-04-30T11:52:42.687Z,23.79
2023-04-30T11:53:42.677Z,23.80
2023-04-30T11:54:42.686Z,23.80
2023-04-30T11:55:42.691Z,23.80
2023-04-30T11:56:42.683Z,23.81
2023-04-30T11:57:42.713Z,23.81
2023-04-30T11:58:42.691Z,23.81
2023-04-30T11:59:42.695Z,23.81
2023-04-30T12:00:42.701Z,23.81
2023-04-30T12:01:42.722Z,23.81
2023-04-30T12:02:42.948Z,23.81
2023-04-30T12:03:42.798Z,23.82
2023-04-30T12:04:42.693Z,23.82
2023-04-30T12:05:42.691Z,23.82
2023-04-30T12:06:42.779Z,23.83
2023-04-30T12:07:42.691Z,23.83
2023-04-30T12:08:42.704Z,23.83
2023-04-30T12:09:42.695Z,23.83
2023-04-30T12:10:42.691Z,23.84
2023-04-30T12:11:42.703Z,23.83
2023-04-30T12:12:42.691Z,23.84
2023-04-30T12:13:42.721Z,23.84
2023-04-30T12:14:42.697Z,23.84
2023-04-30T12:15:42.705Z,23.85
2023-04-30T12:16:42.728Z,23.84
2023-04-30T12:17:42.713Z,23.85
2023-04-30T12:18:42.708Z,23.85
2023-04-30T12:19:42.712Z,23.85
2023-04-30T12:20:42.788Z,23.85
2023-04-30T12:21:42.796Z,23.85
2023-04-30T12:22:42.837Z,23.85
2023-04-30T12:23:42.859Z,23.85
2023-04-30T12:24:42.911Z,23.85
2023-04-30T12:25:42.965Z,23.85
2023-04-30T12:26:43.003Z,23.85
2023-04-30T12:27:43.055Z,23.86
2023-04-30T12:28:43.088Z,23.85
2023-04-30T12:29:43.174Z,23.85
2023-04-30T12:30:43.191Z,23.86
2023-04-30T12:31:43.292Z,23.86
2023-04-30T12:32:43.342Z,23.86
2023-04-30T12:33:43.707Z,23.86
2023-04-30T12:34:43.699Z,23.87
2023-04-30T12:35:43.719Z,23.87
2023-04-30T12:36:43.714Z,23.86
2023-04-30T12:37:43.708Z,23.87
2023-04-30T12:38:43.741Z,23.87
2023-04-30T12:39:43.708Z,23.86
2023-04-30T12:40:43.731Z,23.87
2023-04-30T12:41:43.802Z,23.88
2023-04-30T12:42:43.858Z,23.87
2023-04-30T12:43:43.919Z,23.88
2023-04-30T12:44:43.984Z,23.88
2023-04-30T12:45:44.117Z,23.88
2023-04-30T12:46:44.155Z,23.88
2023-04-30T12:47:44.154Z,23.88
2023-04-30T12:48:44.214Z,23.89
2023-04-30T12:49:44.265Z,23.89
2023-04-30T12:50:44.318Z,23.89
2023-04-30T12:51:44.362Z,23.89
2023-04-30T12:52:46.277Z,23.88
2023-04-30T12:53:44.424Z,23.89
2023-04-30T12:54:44.452Z,23.89